Airfield :
LOGIN :

Register | Disclaimer

   EN    FR    IT 

 










Legend :    VFR   Marginal VFR   IFR   Intensive IFR   Very Intensive IFR
Visi :
Ceiling :
>= 8 km
>= 3000ft
5 to 8 km
1000 to 3000 ft
1500m to 5 km
500 to 1000 ft
800 to 1500m
200 to 500 ft
< 800m
< 200 ft
Symbols :   Thunderstorms  Fog  Heavy snow  Heavy precipitations  Wind > 20 kt
SIGMETs :     Misc.  Thunderstorms  Icing  Turbulence  Mountain Waves  Volcanic Ashes







- Airport Elevation : 80 ft
- IATA code : LPL
- Download approach charts


EGGP - Liverpool John Lennon

CURRENT METAR :
  • 250020Z 24007KT 9999 BKN021 09/07 Q1008

EXPIRED METARs :
  • 242350Z 21005KT 170V240 9999 BKN022 08/07 Q1008
  • 242320Z 25005KT 200V280 9999 BKN022 08/07 Q1008
  • 242250Z 29006KT 9999 FEW010 BKN025 08/07 Q1008
  • 242220Z 28006KT 9999 FEW010 SCT034 08/07 Q1008
  • 242150Z 27009KT 9999 VCSH SCT008 BKN046 07/07 Q1008

TAF TAF EGGP
Valid from the 25 at 00:00 until the 26 at 00:00 UTC


242302Z 2500/2524 27009KT 9999 FEW010 BKN020
PROB30
TEMPO 2500/2502 7000 SHRA BKN008
TEMPO 2509/2524 28015G25KT 7000 SHRA
PROB30
TEMPO 2512/2518 4000 +SHRA BKN014
ATIS : +44 151 907 2000 (option 5 or ext 5150)
Met : +44 871 750 5150
No reported NOTAMs for that airfield.



MET'MAP, your aeronautical weather chart ! - Copyright ORBIFLY December 2007 - Disclaimer

ORBIFLY MET'MAP TEAM :

Programming & Development : Alexandra Zaïnal
Concept & Development : Baudouin d'Aumeries
Co-Development & Prog : Marc-Olivier Méhu
Technical & hardware support : Manuel Goepfert

Contact : metmap@orbifly.com




SOURCES & CREDITS :

   NOAA